Larned, KS (67550)

5:52 AM CST on February 28, 2017 (GMT -0600)
Sky Farms | | Change Station

Elev 2090 ft 38.08 °N, 99.25 °W | Updated 15 seconds ago

Mostly Cloudy
Mostly Cloudy
39.9 °F
Feels Like 40 °F
N
0.0
Wind Variable Wind from South

Today
High -- | Low -- °F
--% Chance of Precip.
Yesterday
High -- | Low -- °F
Precip. -- in
Pressure 29.66 in
Visibility 10.0 miles
Clouds Clear
Windchill 40 °F
Dew Point 20 °F
Humidity 44%
Rainfall 0.00 in
Snow Depth Not available.
7:09 AM 6:29 PM
Waxing Crescent, 4% visible
METAR KGBD 281056Z AUTO 24004KT 10SM CLR 03/M05 A2966 RMK AO2 SLP043 T00331050
Pressure 29.66 in
Visibility 10.0 miles
Clouds Clear
Windchill 40 °F
Dew Point 20 °F
Humidity 44%
Rainfall 0.00 in
Snow Depth Not available.
7:09 AM 6:29 PM
Waxing Crescent, 4% visible
METAR KGBD 281056Z AUTO 24004KT 10SM CLR 03/M05 A2966 RMK AO2 SLP043 T00331050

Get Your Daily Forecast Email!

Thanks for signing up!

Be on the lookout for a verification email in your inbox.

You'll start receiving the daily forecast at 8 AM.

×

10-Day Weather Forecast

Almanac

Astronomy

Feb. 28, 2017 Rise Set
Actual Time
Civil Twilight
Nautical Twilight
Astronomical Twilight
Moon
Length of Visible Light
Length of Day
Tomorrow will be .
, % of the Moon is Illuminated

Today's Extremes

State Highs State Lows

Community

WunderPhotos

Upload Photos

1,962,540 photos uploaded!

WunderBlog® & News

Nearby

Air Quality

  Air Quality AQ Index Pollutant
Not available.

Snow Depth

Station Depth Elevation

Earthquake Activity

City Distance Mag. Time & Date
Minimum magnitude displayed is 2.5.

Coastal Water Temperatures

Place Temperature

Stations

Nearby Weather Stations

Station Location Temp. Windchill Dew Point Humidity Wind Precip. Elev Updated Type
                   

Watches & Warnings

There are currently no watches in effect.